Terminal Aerodrome Forecast
Issued by NWS Louisville, KY

Home | Current Version | Previous Version | Text Only | Print | Product List | Glossary On
Versions: 1 2 3 4 5 6 7 8 9 10 11 12 13 14 15 16 17 18 19
591
FTUS43 KLMK 182219 AAA
TAFSDF
TAF AMD
KSDF 182219Z 1822/1924 22007KT P6SM -DZ BKN014
     FM190300 22004KT P6SM BKN006
     FM191200 23007KT P6SM BKN012=

USA.gov is the U.S. government's official web portal to all federal, state and local government web resources and services.